createdAt,value
2022-12-17T00:02:38.740Z,16.02
2022-12-17T00:05:24.292Z,14.50
2022-12-17T00:08:15.155Z,11.98
2022-12-17T00:11:01.009Z,15.45
2022-12-17T00:13:46.481Z,13.15
2022-12-17T00:16:32.034Z,14.88
2022-12-17T00:19:21.407Z,9.60
2022-12-17T00:22:06.821Z,15.75
2022-12-17T00:24:52.132Z,15.85
2022-12-17T00:27:37.480Z,18.13
2022-12-17T00:30:23.210Z,16.05
2022-12-17T00:33:09.628Z,17.70
2022-12-17T00:35:56.568Z,13.32
2022-12-17T00:38:41.785Z,11.90
2022-12-17T00:41:27.123Z,12.15
2022-12-17T00:44:12.435Z,10.88
2022-12-17T00:46:57.833Z,13.98
2022-12-17T00:49:43.099Z,15.73
2022-12-17T00:52:29.802Z,14.23
2022-12-17T00:55:15.176Z,16.85
2022-12-17T00:58:00.243Z,11.07
2022-12-17T01:00:45.683Z,12.95
2022-12-17T01:03:31.439Z,12.43
2022-12-17T01:06:20.596Z,11.00
2022-12-17T01:09:07.377Z,13.43
2022-12-17T01:11:52.616Z,11.80
2022-12-17T01:14:41.900Z,12.10
2022-12-17T01:17:26.796Z,19.60
2022-12-17T01:20:14.672Z,10.52
2022-12-17T01:22:59.956Z,7.57
2022-12-17T01:25:49.011Z,19.00
2022-12-17T01:28:40.485Z,9.30
2022-12-17T01:31:29.096Z,13.77
2022-12-17T01:34:16.833Z,10.57
2022-12-17T01:37:02.071Z,13.10
2022-12-17T01:39:47.416Z,12.05
2022-12-17T01:42:33.884Z,10.70
2022-12-17T01:45:19.431Z,9.60
2022-12-17T01:48:06.476Z,17.33
2022-12-17T01:50:58.591Z,11.23
2022-12-17T01:53:46.365Z,11.38
2022-12-17T01:56:31.694Z,12.82
2022-12-17T01:59:18.299Z,11.07
2022-12-17T02:02:03.660Z,12.40
2022-12-17T02:04:48.807Z,13.77
2022-12-17T02:07:43.850Z,8.32
2022-12-17T02:10:42.036Z,13.48
2022-12-17T02:13:32.526Z,12.95
2022-12-17T02:16:22.336Z,12.85
2022-12-17T02:19:11.778Z,14.05
2022-12-17T02:21:58.241Z,10.95
2022-12-17T02:24:50.194Z,13.27
2022-12-17T02:27:36.620Z,11.18
2022-12-17T02:30:24.332Z,14.05
2022-12-17T02:33:10.161Z,22.38
2022-12-17T02:35:58.929Z,9.93
2022-12-17T02:38:45.076Z,6.80
2022-12-17T02:41:33.453Z,10.25
2022-12-17T02:44:35.169Z,12.95
2022-12-17T02:47:23.018Z,11.43
2022-12-17T02:50:07.950Z,12.45
2022-12-17T02:52:55.237Z,17.77
2022-12-17T02:55:40.489Z,16.15
2022-12-17T02:58:25.806Z,10.32
2022-12-17T03:01:12.324Z,11.18
2022-12-17T03:03:57.466Z,12.05
2022-12-17T03:06:42.797Z,7.95
2022-12-17T03:09:28.063Z,14.20
2022-12-17T03:12:13.446Z,19.73
2022-12-17T03:14:58.636Z,11.30
2022-12-17T03:17:45.111Z,23.00
2022-12-17T03:20:30.484Z,11.18
2022-12-17T03:23:20.725Z,10.18
2022-12-17T03:26:06.078Z,14.23
2022-12-17T03:28:51.361Z,20.65
2022-12-17T03:31:36.630Z,11.73
2022-12-17T03:34:23.231Z,8.85
2022-12-17T03:37:08.406Z,12.35
2022-12-17T03:39:53.719Z,9.23
2022-12-17T03:42:39.018Z,7.78
2022-12-17T03:45:25.238Z,9.07
2022-12-17T03:48:10.645Z,13.15
2022-12-17T03:50:59.283Z,7.90
2022-12-17T03:53:44.546Z,11.48
2022-12-17T03:56:29.816Z,13.23
2022-12-17T03:59:15.077Z,9.82
2022-12-17T04:02:00.592Z,8.00
2022-12-17T04:04:45.602Z,13.43
2022-12-17T04:07:32.239Z,9.57
2022-12-17T04:10:17.604Z,10.65
2022-12-17T04:13:02.849Z,9.27
2022-12-17T04:15:48.195Z,11.23
2022-12-17T04:18:45.069Z,11.25
2022-12-17T04:21:30.147Z,15.88
2022-12-17T04:24:16.884Z,12.50
2022-12-17T04:27:02.042Z,15.55
2022-12-17T04:29:47.511Z,6.68
2022-12-17T04:32:35.446Z,12.65
2022-12-17T04:35:20.839Z,15.25
2022-12-17T04:38:05.677Z,9.30
2022-12-17T04:40:52.205Z,11.85
2022-12-17T04:43:37.958Z,10.20
2022-12-17T04:46:23.277Z,11.55
2022-12-17T04:49:08.465Z,12.35
2022-12-17T04:51:53.647Z,8.30
2022-12-17T04:54:38.920Z,13.20
2022-12-17T04:57:25.612Z,16.95
2022-12-17T05:00:10.907Z,7.20
2022-12-17T05:02:56.371Z,11.30
2022-12-17T05:05:41.408Z,9.20
2022-12-17T05:08:26.621Z,9.95
2022-12-17T05:11:11.972Z,6.80
2022-12-17T05:13:58.525Z,7.63
2022-12-17T05:16:43.802Z,13.40
2022-12-17T05:19:29.085Z,9.68
2022-12-17T05:22:14.447Z,12.65
2022-12-17T05:24:59.730Z,10.15
2022-12-17T05:27:44.981Z,9.93
2022-12-17T05:30:31.275Z,9.45
2022-12-17T05:33:17.580Z,11.90
2022-12-17T05:36:02.984Z,11.57
2022-12-17T05:38:48.381Z,8.98
2022-12-17T05:41:33.676Z,6.18
2022-12-17T05:44:19.026Z,15.80
2022-12-17T05:47:05.601Z,11.73
2022-12-17T05:49:50.929Z,7.68
2022-12-17T05:52:36.292Z,12.60
2022-12-17T05:55:21.581Z,11.95
2022-12-17T05:58:06.911Z,14.20
2022-12-17T06:01:00.687Z,16.92
2022-12-17T06:03:47.368Z,17.60
2022-12-17T06:06:32.669Z,14.05
2022-12-17T06:09:17.984Z,11.13
2022-12-17T06:12:03.317Z,12.63
2022-12-17T06:14:44.750Z,11.32
2022-12-17T06:17:30.012Z,10.90
2022-12-17T06:20:16.710Z,18.50
2022-12-17T06:23:01.840Z,11.43
2022-12-17T06:25:47.042Z,12.15
2022-12-17T06:28:32.224Z,16.73
2022-12-17T06:31:17.557Z,14.77
2022-12-17T06:33:59.129Z,18.27
2022-12-17T06:36:45.665Z,24.38
2022-12-17T06:39:30.989Z,19.80
2022-12-17T06:42:16.203Z,18.58
2022-12-17T06:45:01.389Z,23.38
2022-12-17T06:47:46.748Z,19.10
2022-12-17T06:50:28.382Z,24.83
2022-12-17T06:53:19.606Z,13.95
2022-12-17T06:56:13.324Z,21.23
2022-12-17T06:58:58.590Z,31.40
2022-12-17T07:01:44.399Z,24.35
2022-12-17T07:04:44.410Z,19.70
2022-12-17T07:07:29.163Z,15.98
2022-12-17T07:10:21.373Z,16.15
2022-12-17T07:13:06.916Z,13.27
2022-12-17T07:15:52.157Z,14.75
2022-12-17T07:18:37.526Z,21.15
2022-12-17T07:21:22.726Z,22.10
2022-12-17T07:24:08.056Z,21.77
2022-12-17T07:26:54.791Z,22.55
2022-12-17T07:29:40.105Z,20.13
2022-12-17T07:32:25.482Z,18.67
2022-12-17T07:35:10.724Z,28.95
2022-12-17T07:37:55.938Z,21.65
2022-12-17T07:40:41.299Z,26.10
2022-12-17T07:43:30.291Z,30.17
2022-12-17T07:46:20.867Z,24.75
2022-12-17T07:49:08.432Z,22.60
2022-12-17T07:51:53.778Z,27.73
2022-12-17T07:54:39.152Z,18.35
2022-12-17T07:57:24.197Z,16.30
2022-12-17T08:00:25.287Z,21.73
2022-12-17T08:03:15.286Z,17.80
2022-12-17T08:06:00.276Z,19.88
2022-12-17T08:08:45.550Z,24.83
2022-12-17T08:11:30.951Z,24.67
2022-12-17T08:14:16.456Z,22.35
2022-12-17T08:17:03.266Z,20.50
2022-12-17T08:19:48.763Z,28.20
2022-12-17T08:22:31.892Z,50.58
2022-12-17T08:25:17.179Z,33.67
2022-12-17T08:28:04.578Z,31.60
2022-12-17T08:30:55.838Z,28.50
2022-12-17T08:33:42.401Z,28.55
2022-12-17T08:36:27.781Z,30.25
2022-12-17T08:39:12.990Z,29.23
2022-12-17T08:42:03.960Z,26.67
2022-12-17T08:44:49.615Z,29.52
2022-12-17T08:47:35.334Z,32.05
2022-12-17T08:50:22.868Z,31.35
2022-12-17T08:53:08.191Z,25.92
2022-12-17T08:55:59.782Z,33.30
2022-12-17T08:58:59.300Z,23.80
2022-12-17T09:01:48.161Z,23.27
2022-12-17T09:04:36.232Z,31.27
2022-12-17T09:07:31.903Z,26.17
2022-12-17T09:10:40.386Z,17.77
2022-12-17T09:13:37.446Z,25.95
2022-12-17T09:16:23.272Z,24.45
2022-12-17T09:19:09.062Z,23.42
2022-12-17T09:21:54.270Z,26.80
2022-12-17T09:24:40.576Z,24.63
2022-12-17T09:27:25.975Z,25.25
2022-12-17T09:30:11.413Z,19.02
2022-12-17T09:32:56.652Z,27.27
2022-12-17T09:35:41.807Z,26.83
2022-12-17T09:38:30.178Z,21.42
2022-12-17T09:41:19.315Z,31.85
2022-12-17T09:44:09.817Z,25.90
2022-12-17T09:46:59.797Z,28.83
2022-12-17T09:49:47.716Z,30.63
2022-12-17T09:52:38.664Z,28.63
2022-12-17T09:55:37.476Z,23.27
2022-12-17T09:58:24.735Z,29.80
2022-12-17T10:01:11.494Z,29.05
2022-12-17T10:03:57.637Z,32.50
2022-12-17T10:06:44.240Z,33.00
2022-12-17T10:09:37.474Z,30.92
2022-12-17T10:12:31.547Z,29.30
2022-12-17T10:15:18.165Z,28.05
2022-12-17T10:18:03.527Z,30.27
2022-12-17T10:21:03.894Z,41.38
2022-12-17T10:23:50.971Z,29.17
2022-12-17T10:26:38.819Z,48.58
2022-12-17T10:29:30.608Z,34.42
2022-12-17T10:32:28.070Z,29.10
2022-12-17T10:35:13.392Z,26.08
2022-12-17T10:37:55.168Z,26.10
2022-12-17T10:40:44.021Z,34.97
2022-12-17T10:43:39.735Z,35.92
2022-12-17T10:46:25.239Z,36.75
2022-12-17T10:49:22.072Z,32.72
2022-12-17T10:52:08.094Z,28.77
2022-12-17T10:54:58.906Z,38.08
2022-12-17T10:57:49.398Z,30.52
2022-12-17T11:00:49.065Z,41.30
2022-12-17T11:03:43.131Z,31.10
2022-12-17T11:06:30.134Z,26.08
2022-12-17T11:09:15.820Z,30.30
2022-12-17T11:12:07.099Z,31.98
2022-12-17T11:15:00.739Z,26.40
2022-12-17T11:17:47.078Z,35.10
2022-12-17T11:20:40.971Z,39.50
2022-12-17T11:23:33.214Z,33.05
2022-12-17T11:26:22.005Z,46.92
2022-12-17T11:29:07.434Z,38.90
2022-12-17T11:32:06.966Z,51.70
2022-12-17T11:35:07.561Z,31.45
2022-12-17T11:37:57.556Z,54.53
2022-12-17T11:40:49.454Z,29.88
2022-12-17T11:43:40.480Z,38.45
2022-12-17T11:46:35.892Z,39.95
2022-12-17T11:49:30.339Z,34.80
2022-12-17T11:52:20.777Z,30.75
2022-12-17T11:55:11.523Z,31.88
2022-12-17T11:58:04.328Z,41.10
2022-12-17T12:00:52.697Z,37.35
2022-12-17T12:03:46.833Z,27.63
2022-12-17T12:06:36.512Z,29.55
2022-12-17T12:09:30.956Z,34.38
2022-12-17T12:12:22.225Z,27.27
2022-12-17T12:15:14.833Z,27.90
2022-12-17T12:18:05.001Z,27.33
2022-12-17T12:21:14.098Z,34.53
2022-12-17T12:24:07.963Z,41.88
2022-12-17T12:27:00.840Z,29.92
2022-12-17T12:29:52.083Z,37.90
2022-12-17T12:32:43.858Z,34.47
2022-12-17T12:35:34.051Z,34.88
2022-12-17T12:38:19.497Z,31.95
2022-12-17T12:41:07.358Z,39.15
2022-12-17T12:43:54.367Z,40.17
2022-12-17T12:46:43.424Z,39.35
2022-12-17T12:49:37.129Z,38.80
2022-12-17T12:52:22.421Z,41.03
2022-12-17T12:55:11.763Z,46.80
2022-12-17T12:57:59.014Z,33.03
2022-12-17T13:00:47.972Z,39.92
2022-12-17T13:03:40.038Z,33.30
2022-12-17T13:06:09.319Z,32.03
2022-12-17T13:08:37.525Z,28.77
2022-12-17T13:11:25.732Z,32.97
2022-12-17T13:13:56.793Z,26.38
2022-12-17T13:16:32.776Z,38.20
2022-12-17T13:19:06.034Z,26.58
2022-12-17T13:21:35.965Z,34.28
2022-12-17T13:24:11.930Z,30.60
2022-12-17T13:26:46.382Z,38.45
2022-12-17T13:29:22.666Z,37.25
2022-12-17T13:32:04.539Z,36.47
2022-12-17T13:34:41.303Z,42.95
2022-12-17T13:37:14.326Z,28.67
2022-12-17T13:39:47.173Z,33.38
2022-12-17T13:42:19.403Z,48.05
2022-12-17T13:44:47.714Z,38.53
2022-12-17T13:47:21.875Z,41.45
2022-12-17T13:50:24.418Z,44.78
2022-12-17T13:52:40.705Z,38.10
2022-12-17T13:55:11.242Z,36.65
2022-12-17T13:57:45.698Z,31.98
2022-12-17T14:00:22.624Z,46.72
2022-12-17T14:02:50.556Z,26.80
2022-12-17T14:05:25.150Z,32.55
2022-12-17T14:07:54.651Z,36.65
2022-12-17T14:10:22.567Z,35.60
2022-12-17T14:12:50.058Z,33.35
2022-12-17T14:15:25.648Z,38.13
2022-12-17T14:17:58.851Z,37.97
2022-12-17T14:20:27.848Z,39.95
2022-12-17T14:23:03.288Z,40.53
2022-12-17T14:25:33.867Z,34.78
2022-12-17T14:28:04.637Z,39.33
2022-12-17T14:30:46.341Z,38.38
2022-12-17T14:33:31.068Z,40.95
2022-12-17T14:35:59.991Z,43.03
2022-12-17T14:38:38.999Z,42.88
2022-12-17T14:41:31.829Z,39.03
2022-12-17T14:44:01.258Z,38.05
2022-12-17T14:46:31.330Z,41.65
2022-12-17T14:49:16.172Z,27.10
2022-12-17T14:51:44.112Z,39.00
2022-12-17T14:54:31.296Z,42.95
2022-12-17T14:57:01.791Z,33.55
2022-12-17T14:59:34.699Z,32.25
2022-12-17T15:02:05.900Z,35.22
2022-12-17T15:04:33.981Z,48.30
2022-12-17T15:07:02.341Z,42.20
2022-12-17T15:09:32.732Z,48.33
2022-12-17T15:12:00.625Z,37.17
2022-12-17T15:14:29.966Z,34.40
2022-12-17T15:16:59.224Z,30.67
2022-12-17T15:19:26.792Z,41.33
2022-12-17T15:21:54.354Z,44.35
2022-12-17T15:24:24.982Z,39.58
2022-12-17T15:26:55.004Z,36.92
2022-12-17T15:29:24.287Z,32.28
2022-12-17T15:31:51.957Z,40.58
2022-12-17T15:34:19.674Z,37.17
2022-12-17T15:36:47.923Z,43.17
2022-12-17T15:39:15.674Z,27.75
2022-12-17T15:42:00.622Z,34.60
2022-12-17T15:44:29.701Z,35.35
2022-12-17T15:47:53.927Z,26.02
2022-12-17T15:50:47.014Z,31.67
2022-12-17T15:53:14.812Z,34.42
2022-12-17T15:55:42.699Z,38.28
2022-12-17T15:58:29.412Z,40.22
2022-12-17T16:01:15.174Z,34.60
2022-12-17T16:04:25.406Z,34.67
2022-12-17T16:06:53.200Z,32.15
2022-12-17T16:09:24.351Z,41.50
2022-12-17T16:11:54.486Z,37.80
2022-12-17T16:14:24.549Z,31.10
2022-12-17T16:16:54.387Z,35.55
2022-12-17T16:19:26.079Z,30.33
2022-12-17T16:21:53.852Z,37.17
2022-12-17T16:24:22.690Z,39.75
2022-12-17T16:26:52.113Z,35.13
2022-12-17T16:29:19.760Z,43.92
2022-12-17T16:31:47.608Z,39.40
2022-12-17T16:34:17.112Z,41.75
2022-12-17T16:37:12.405Z,33.97
2022-12-17T16:39:39.971Z,31.88
2022-12-17T16:42:08.293Z,35.00
2022-12-17T16:44:38.160Z,36.65
2022-12-17T16:47:06.934Z,31.60
2022-12-17T16:49:43.695Z,43.05
2022-12-17T16:52:26.879Z,36.47
2022-12-17T16:55:01.444Z,30.50
2022-12-17T16:57:36.529Z,54.45
2022-12-17T17:00:04.987Z,37.97
2022-12-17T17:02:33.262Z,35.03
2022-12-17T17:05:02.367Z,48.95
2022-12-17T17:07:32.951Z,40.50
2022-12-17T17:10:00.763Z,42.38
2022-12-17T17:12:28.524Z,37.63
2022-12-17T17:14:56.418Z,38.35
2022-12-17T17:17:54.340Z,38.08
2022-12-17T17:20:17.292Z,36.67
2022-12-17T17:22:50.373Z,35.17
2022-12-17T17:25:21.190Z,42.08
2022-12-17T17:27:49.082Z,35.25
2022-12-17T17:30:17.226Z,47.80
2022-12-17T17:32:45.097Z,35.53
2022-12-17T17:35:12.806Z,40.35
2022-12-17T17:37:42.329Z,38.17
2022-12-17T17:40:11.822Z,37.85
2022-12-17T17:42:39.739Z,32.60
2022-12-17T17:45:09.043Z,42.80
2022-12-17T17:47:36.839Z,41.00
2022-12-17T17:50:04.983Z,41.72
2022-12-17T17:52:32.861Z,37.33
2022-12-17T17:55:02.395Z,47.20
2022-12-17T17:57:35.617Z,41.45
2022-12-17T18:00:04.247Z,42.03
2022-12-17T18:02:32.471Z,40.67
2022-12-17T18:05:06.709Z,35.85
2022-12-17T18:07:39.266Z,35.10
2022-12-17T18:10:09.920Z,38.25
2022-12-17T18:12:59.599Z,28.75
2022-12-17T18:15:27.373Z,34.95
2022-12-17T18:17:55.365Z,37.33
2022-12-17T18:20:23.858Z,29.10
2022-12-17T18:22:51.514Z,27.63
2022-12-17T18:25:23.067Z,24.65
2022-12-17T18:27:52.872Z,25.17
2022-12-17T18:30:21.324Z,31.35
2022-12-17T18:32:48.804Z,36.95
2022-12-17T18:35:16.612Z,38.80
2022-12-17T18:37:44.105Z,30.30
2022-12-17T18:40:12.149Z,38.53
2022-12-17T18:43:00.599Z,29.92
2022-12-17T18:45:28.106Z,38.65
2022-12-17T18:47:55.642Z,29.15
2022-12-17T18:50:23.196Z,30.48
2022-12-17T18:52:50.739Z,33.10
2022-12-17T18:55:18.405Z,19.00
2022-12-17T18:57:47.304Z,26.98
2022-12-17T19:00:15.831Z,33.65
2022-12-17T19:02:44.180Z,21.05
2022-12-17T19:05:12.020Z,24.92
2022-12-17T19:07:39.510Z,25.45
2022-12-17T19:10:07.984Z,27.02
2022-12-17T19:12:35.750Z,27.10
2022-12-17T19:15:05.114Z,38.40
2022-12-17T19:17:32.668Z,32.33
2022-12-17T19:20:00.174Z,36.92
2022-12-17T19:22:27.747Z,30.05
2022-12-17T19:24:55.289Z,31.50
2022-12-17T19:27:22.877Z,30.15
2022-12-17T19:29:50.485Z,30.35
2022-12-17T19:32:36.443Z,25.00
2022-12-17T19:35:08.660Z,29.65
2022-12-17T19:37:36.471Z,33.88
2022-12-17T19:40:04.741Z,30.77
2022-12-17T19:42:37.430Z,39.65
2022-12-17T19:45:06.130Z,30.92
2022-12-17T19:47:35.169Z,22.13
2022-12-17T19:50:04.973Z,33.45
2022-12-17T19:52:32.771Z,34.25
2022-12-17T19:55:00.381Z,42.20
2022-12-17T19:57:28.194Z,37.05
2022-12-17T19:59:55.935Z,38.40
2022-12-17T20:02:28.352Z,33.55
2022-12-17T20:05:00.170Z,32.08
2022-12-17T20:07:27.846Z,36.83
2022-12-17T20:09:55.499Z,31.90
2022-12-17T20:12:23.161Z,27.00
2022-12-17T20:14:51.160Z,46.70
2022-12-17T20:17:20.425Z,34.83
2022-12-17T20:19:49.501Z,31.88
2022-12-17T20:22:18.508Z,26.40
2022-12-17T20:24:46.194Z,24.73
2022-12-17T20:27:13.918Z,28.27
2022-12-17T20:29:41.608Z,25.85
2022-12-17T20:32:09.288Z,34.75
2022-12-17T20:34:36.933Z,37.75
2022-12-17T20:37:04.641Z,37.13
2022-12-17T20:39:33.701Z,28.17
2022-12-17T20:42:01.491Z,24.15
2022-12-17T20:44:29.236Z,28.27
2022-12-17T20:46:56.955Z,29.83
2022-12-17T20:49:24.729Z,32.97
2022-12-17T20:51:52.354Z,33.08
2022-12-17T20:54:21.438Z,33.08
2022-12-17T20:56:50.695Z,28.27
2022-12-17T20:59:19.782Z,28.75
2022-12-17T21:01:53.005Z,27.60
2022-12-17T21:04:23.472Z,27.00
2022-12-17T21:06:51.182Z,30.25
2022-12-17T21:09:20.949Z,26.02
2022-12-17T21:11:50.085Z,21.23
2022-12-17T21:14:19.390Z,24.80
2022-12-17T21:16:47.634Z,31.02
2022-12-17T21:19:16.440Z,31.02
2022-12-17T21:21:44.508Z,25.80
2022-12-17T21:24:12.528Z,24.08
2022-12-17T21:26:42.169Z,30.45
2022-12-17T21:29:11.581Z,28.80
2022-12-17T21:31:40.797Z,24.90
2022-12-17T21:34:10.849Z,30.50
2022-12-17T21:36:38.642Z,23.85
2022-12-17T21:39:08.978Z,27.25
2022-12-17T21:41:44.657Z,34.15
2022-12-17T21:44:15.454Z,37.05
2022-12-17T21:46:44.024Z,34.00
2022-12-17T21:49:17.576Z,30.80
2022-12-17T21:51:45.752Z,36.17
2022-12-17T21:54:19.713Z,29.73
2022-12-17T21:56:48.282Z,23.33
2022-12-17T21:59:17.754Z,30.15
2022-12-17T22:01:45.779Z,22.75
2022-12-17T22:04:13.604Z,28.63
2022-12-17T22:06:46.617Z,34.97
2022-12-17T22:09:29.436Z,24.48
2022-12-17T22:12:26.849Z,27.55
2022-12-17T22:14:55.901Z,23.67
2022-12-17T22:17:24.144Z,20.77
2022-12-17T22:20:00.720Z,30.25
2022-12-17T22:22:30.612Z,28.65
2022-12-17T22:25:00.893Z,26.13
2022-12-17T22:27:32.416Z,29.02
2022-12-17T22:30:19.170Z,30.00
2022-12-17T22:33:03.110Z,31.15
2022-12-17T22:37:08.620Z,33.45
2022-12-17T22:42:53.389Z,27.05
2022-12-17T22:44:33.478Z,22.13
2022-12-17T22:44:48.488Z,24.02
2022-12-17T22:47:17.768Z,30.75
2022-12-17T22:49:45.635Z,20.30
2022-12-17T22:52:17.508Z,30.42
2022-12-17T22:54:46.637Z,31.38
2022-12-17T22:57:36.688Z,33.22
2022-12-17T23:00:02.492Z,30.35
2022-12-17T23:02:32.146Z,25.42
2022-12-17T23:05:00.855Z,30.98
2022-12-17T23:07:33.367Z,21.52
2022-12-17T23:10:01.024Z,27.95
2022-12-17T23:12:46.242Z,26.05
2022-12-17T23:15:13.933Z,26.15
2022-12-17T23:17:43.057Z,25.60
2022-12-17T23:20:12.116Z,27.58
2022-12-17T23:22:42.634Z,24.55
2022-12-17T23:25:11.041Z,24.00
2022-12-17T23:27:38.943Z,23.30
2022-12-17T23:30:10.363Z,25.10
2022-12-17T23:32:38.100Z,23.25
2022-12-17T23:35:08.313Z,23.45
2022-12-17T23:37:39.993Z,23.20
2022-12-17T23:40:09.389Z,23.30
2022-12-17T23:42:37.046Z,27.95
2022-12-17T23:45:05.901Z,22.80
2022-12-17T23:47:33.558Z,29.77
2022-12-17T23:50:01.245Z,38.78
2022-12-17T23:52:30.448Z,24.45
2022-12-17T23:55:01.449Z,24.80
2022-12-17T23:57:29.718Z,32.05
